sensor_id;sensor_type;location;lat;lon;timestamp;P1;durP1;ratioP1;P2;durP2;ratioP2
4424;SDS011;2225;53.568;13.266;2022-07-29T00:00:01;7.70;;;3.00;;
4424;SDS011;2225;53.568;13.266;2022-07-29T00:02:34;7.67;;;2.80;;
4424;SDS011;2225;53.568;13.266;2022-07-29T00:05:01;11.03;;;3.07;;
4424;SDS011;2225;53.568;13.266;2022-07-29T00:07:29;11.67;;;3.10;;
4424;SDS011;2225;53.568;13.266;2022-07-29T00:09:56;8.57;;;2.60;;
4424;SDS011;2225;53.568;13.266;2022-07-29T00:12:24;10.10;;;3.20;;
4424;SDS011;2225;53.568;13.266;2022-07-29T00:14:53;9.77;;;2.80;;
4424;SDS011;2225;53.568;13.266;2022-07-29T00:17:20;13.67;;;3.50;;
4424;SDS011;2225;53.568;13.266;2022-07-29T00:19:48;9.23;;;2.60;;
4424;SDS011;2225;53.568;13.266;2022-07-29T00:22:15;9.27;;;3.20;;
4424;SDS011;2225;53.568;13.266;2022-07-29T00:24:42;7.23;;;3.03;;
4424;SDS011;2225;53.568;13.266;2022-07-29T00:27:09;8.20;;;3.17;;
4424;SDS011;2225;53.568;13.266;2022-07-29T00:29:36;9.23;;;2.67;;
4424;SDS011;2225;53.568;13.266;2022-07-29T00:32:03;18.00;;;3.70;;
4424;SDS011;2225;53.568;13.266;2022-07-29T00:34:30;8.03;;;3.17;;
4424;SDS011;2225;53.568;13.266;2022-07-29T00:37:16;8.47;;;3.10;;
4424;SDS011;2225;53.568;13.266;2022-07-29T00:39:43;7.13;;;3.30;;
4424;SDS011;2225;53.568;13.266;2022-07-29T00:42:10;9.10;;;3.27;;
4424;SDS011;2225;53.568;13.266;2022-07-29T00:44:40;7.90;;;3.40;;
4424;SDS011;2225;53.568;13.266;2022-07-29T00:47:09;8.23;;;3.40;;
4424;SDS011;2225;53.568;13.266;2022-07-29T00:49:37;8.93;;;3.27;;
4424;SDS011;2225;53.568;13.266;2022-07-29T00:52:07;12.03;;;4.27;;
4424;SDS011;2225;53.568;13.266;2022-07-29T00:54:35;10.80;;;3.53;;
4424;SDS011;2225;53.568;13.266;2022-07-29T00:57:10;8.50;;;2.90;;
4424;SDS011;2225;53.568;13.266;2022-07-29T00:59:38;7.77;;;3.33;;
4424;SDS011;2225;53.568;13.266;2022-07-29T01:02:06;13.70;;;3.80;;
4424;SDS011;2225;53.568;13.266;2022-07-29T01:04:34;8.50;;;4.00;;
4424;SDS011;2225;53.568;13.266;2022-07-29T01:07:01;8.97;;;3.30;;
4424;SDS011;2225;53.568;13.266;2022-07-29T01:09:30;7.30;;;2.83;;
4424;SDS011;2225;53.568;13.266;2022-07-29T01:12:22;6.37;;;3.20;;
4424;SDS011;2225;53.568;13.266;2022-07-29T01:14:51;7.03;;;3.10;;
4424;SDS011;2225;53.568;13.266;2022-07-29T01:20:28;7.30;;;2.90;;
4424;SDS011;2225;53.568;13.266;2022-07-29T01:23:06;12.70;;;3.70;;
4424;SDS011;2225;53.568;13.266;2022-07-29T01:29:24;8.40;;;2.90;;
4424;SDS011;2225;53.568;13.266;2022-07-29T01:32:07;10.20;;;3.50;;
4424;SDS011;2225;53.568;13.266;2022-07-29T01:34:55;13.73;;;3.13;;
4424;SDS011;2225;53.568;13.266;2022-07-29T01:37:46;8.30;;;3.33;;
4424;SDS011;2225;53.568;13.266;2022-07-29T01:43:21;10.27;;;3.80;;
4424;SDS011;2225;53.568;13.266;2022-07-29T01:45:57;9.60;;;3.10;;
4424;SDS011;2225;53.568;13.266;2022-07-29T01:48:32;7.40;;;3.27;;
4424;SDS011;2225;53.568;13.266;2022-07-29T01:51:14;7.97;;;3.20;;
4424;SDS011;2225;53.568;13.266;2022-07-29T01:53:47;8.60;;;2.70;;
4424;SDS011;2225;53.568;13.266;2022-07-29T01:56:21;42.27;;;4.23;;
4424;SDS011;2225;53.568;13.266;2022-07-29T01:58:50;7.50;;;2.63;;
4424;SDS011;2225;53.568;13.266;2022-07-29T02:01:20;7.13;;;3.00;;
4424;SDS011;2225;53.568;13.266;2022-07-29T02:03:50;8.90;;;3.10;;
4424;SDS011;2225;53.568;13.266;2022-07-29T02:06:20;9.40;;;3.20;;
4424;SDS011;2225;53.568;13.266;2022-07-29T02:08:49;9.60;;;3.57;;
4424;SDS011;2225;53.568;13.266;2022-07-29T02:11:18;10.60;;;3.30;;
4424;SDS011;2225;53.568;13.266;2022-07-29T02:13:45;8.50;;;2.93;;
4424;SDS011;2225;53.568;13.266;2022-07-29T02:16:14;6.97;;;2.97;;
4424;SDS011;2225;53.568;13.266;2022-07-29T02:18:43;8.20;;;3.20;;
4424;SDS011;2225;53.568;13.266;2022-07-29T02:21:15;8.90;;;3.50;;
4424;SDS011;2225;53.568;13.266;2022-07-29T02:23:49;11.10;;;3.30;;
4424;SDS011;2225;53.568;13.266;2022-07-29T02:26:19;8.00;;;3.20;;
4424;SDS011;2225;53.568;13.266;2022-07-29T02:28:49;10.47;;;3.37;;
4424;SDS011;2225;53.568;13.266;2022-07-29T02:31:21;6.70;;;3.53;;
4424;SDS011;2225;53.568;13.266;2022-07-29T02:33:52;9.30;;;3.30;;
4424;SDS011;2225;53.568;13.266;2022-07-29T02:36:23;8.03;;;3.30;;
4424;SDS011;2225;53.568;13.266;2022-07-29T02:38:52;6.07;;;3.17;;
4424;SDS011;2225;53.568;13.266;2022-07-29T02:41:24;10.97;;;3.30;;
4424;SDS011;2225;53.568;13.266;2022-07-29T02:43:58;10.97;;;3.50;;
4424;SDS011;2225;53.568;13.266;2022-07-29T02:46:33;7.43;;;3.17;;
4424;SDS011;2225;53.568;13.266;2022-07-29T02:49:23;8.93;;;3.60;;
4424;SDS011;2225;53.568;13.266;2022-07-29T02:52:04;7.73;;;3.33;;
4424;SDS011;2225;53.568;13.266;2022-07-29T02:54:48;7.33;;;3.43;;
4424;SDS011;2225;53.568;13.266;2022-07-29T02:57:32;7.50;;;3.30;;
4424;SDS011;2225;53.568;13.266;2022-07-29T03:00:20;13.10;;;3.53;;
4424;SDS011;2225;53.568;13.266;2022-07-29T03:02:50;17.80;;;3.33;;
4424;SDS011;2225;53.568;13.266;2022-07-29T03:05:20;10.37;;;4.23;;
4424;SDS011;2225;53.568;13.266;2022-07-29T03:07:57;7.20;;;3.67;;
4424;SDS011;2225;53.568;13.266;2022-07-29T03:10:28;8.70;;;3.83;;
4424;SDS011;2225;53.568;13.266;2022-07-29T03:12:55;7.50;;;3.70;;
4424;SDS011;2225;53.568;13.266;2022-07-29T03:15:24;8.17;;;3.40;;
4424;SDS011;2225;53.568;13.266;2022-07-29T03:17:51;9.03;;;3.63;;
4424;SDS011;2225;53.568;13.266;2022-07-29T03:20:19;7.10;;;4.27;;
4424;SDS011;2225;53.568;13.266;2022-07-29T03:22:47;13.20;;;4.30;;
4424;SDS011;2225;53.568;13.266;2022-07-29T03:25:15;10.63;;;3.97;;
4424;SDS011;2225;53.568;13.266;2022-07-29T03:27:44;7.47;;;4.10;;
4424;SDS011;2225;53.568;13.266;2022-07-29T03:30:12;9.47;;;4.03;;
4424;SDS011;2225;53.568;13.266;2022-07-29T03:32:46;7.60;;;3.87;;
4424;SDS011;2225;53.568;13.266;2022-07-29T03:35:14;9.43;;;3.93;;
4424;SDS011;2225;53.568;13.266;2022-07-29T03:37:43;9.03;;;4.50;;
4424;SDS011;2225;53.568;13.266;2022-07-29T03:40:11;9.63;;;4.07;;
4424;SDS011;2225;53.568;13.266;2022-07-29T03:42:44;9.27;;;4.80;;
4424;SDS011;2225;53.568;13.266;2022-07-29T03:45:13;9.80;;;4.43;;
4424;SDS011;2225;53.568;13.266;2022-07-29T03:47:48;12.53;;;4.20;;
4424;SDS011;2225;53.568;13.266;2022-07-29T03:50:26;10.80;;;4.27;;
4424;SDS011;2225;53.568;13.266;2022-07-29T03:52:55;9.43;;;4.00;;
4424;SDS011;2225;53.568;13.266;2022-07-29T03:55:22;7.53;;;4.40;;
4424;SDS011;2225;53.568;13.266;2022-07-29T03:57:50;8.07;;;3.30;;
4424;SDS011;2225;53.568;13.266;2022-07-29T04:00:17;8.60;;;4.03;;
4424;SDS011;2225;53.568;13.266;2022-07-29T04:02:45;8.37;;;4.00;;
4424;SDS011;2225;53.568;13.266;2022-07-29T04:05:15;14.30;;;4.00;;
4424;SDS011;2225;53.568;13.266;2022-07-29T04:07:43;7.23;;;3.73;;
4424;SDS011;2225;53.568;13.266;2022-07-29T04:10:12;11.60;;;4.43;;
4424;SDS011;2225;53.568;13.266;2022-07-29T04:12:39;8.70;;;4.13;;
4424;SDS011;2225;53.568;13.266;2022-07-29T04:15:06;7.47;;;3.80;;
4424;SDS011;2225;53.568;13.266;2022-07-29T04:17:34;8.27;;;4.03;;
4424;SDS011;2225;53.568;13.266;2022-07-29T04:20:00;11.03;;;4.40;;
4424;SDS011;2225;53.568;13.266;2022-07-29T04:22:27;7.50;;;4.00;;
4424;SDS011;2225;53.568;13.266;2022-07-29T04:24:54;14.90;;;4.53;;
4424;SDS011;2225;53.568;13.266;2022-07-29T04:27:28;9.60;;;3.83;;
4424;SDS011;2225;53.568;13.266;2022-07-29T04:29:55;7.93;;;3.90;;
4424;SDS011;2225;53.568;13.266;2022-07-29T04:32:23;20.43;;;4.43;;
4424;SDS011;2225;53.568;13.266;2022-07-29T04:34:51;9.37;;;4.20;;
4424;SDS011;2225;53.568;13.266;2022-07-29T04:37:18;10.10;;;4.77;;
4424;SDS011;2225;53.568;13.266;2022-07-29T04:39:45;15.77;;;4.60;;
4424;SDS011;2225;53.568;13.266;2022-07-29T04:42:12;9.60;;;4.00;;
4424;SDS011;2225;53.568;13.266;2022-07-29T04:44:39;7.70;;;3.80;;
4424;SDS011;2225;53.568;13.266;2022-07-29T04:47:08;11.30;;;4.40;;
4424;SDS011;2225;53.568;13.266;2022-07-29T04:49:38;13.63;;;4.40;;
4424;SDS011;2225;53.568;13.266;2022-07-29T04:52:05;16.23;;;4.23;;
4424;SDS011;2225;53.568;13.266;2022-07-29T04:54:33;8.87;;;4.10;;
4424;SDS011;2225;53.568;13.266;2022-07-29T04:57:00;13.53;;;4.63;;
4424;SDS011;2225;53.568;13.266;2022-07-29T04:59:27;9.00;;;4.30;;
4424;SDS011;2225;53.568;13.266;2022-07-29T05:01:54;7.97;;;4.67;;
4424;SDS011;2225;53.568;13.266;2022-07-29T05:04:21;14.03;;;5.03;;
4424;SDS011;2225;53.568;13.266;2022-07-29T05:06:48;10.03;;;4.83;;
4424;SDS011;2225;53.568;13.266;2022-07-29T05:09:15;13.50;;;5.00;;
4424;SDS011;2225;53.568;13.266;2022-07-29T05:11:42;14.90;;;6.30;;
4424;SDS011;2225;53.568;13.266;2022-07-29T05:14:09;11.30;;;5.00;;
4424;SDS011;2225;53.568;13.266;2022-07-29T05:16:36;10.47;;;5.33;;
4424;SDS011;2225;53.568;13.266;2022-07-29T05:19:03;18.90;;;4.83;;
4424;SDS011;2225;53.568;13.266;2022-07-29T05:21:30;8.50;;;3.87;;
4424;SDS011;2225;53.568;13.266;2022-07-29T05:23:57;10.57;;;5.00;;
4424;SDS011;2225;53.568;13.266;2022-07-29T05:26:24;15.87;;;5.73;;
4424;SDS011;2225;53.568;13.266;2022-07-29T05:28:51;11.73;;;4.97;;
4424;SDS011;2225;53.568;13.266;2022-07-29T05:31:18;13.63;;;5.57;;
4424;SDS011;2225;53.568;13.266;2022-07-29T05:33:45;10.80;;;5.60;;
4424;SDS011;2225;53.568;13.266;2022-07-29T05:36:12;10.73;;;4.70;;
4424;SDS011;2225;53.568;13.266;2022-07-29T05:38:39;15.80;;;5.20;;
4424;SDS011;2225;53.568;13.266;2022-07-29T05:41:05;12.57;;;5.87;;
4424;SDS011;2225;53.568;13.266;2022-07-29T05:43:32;13.40;;;5.77;;
4424;SDS011;2225;53.568;13.266;2022-07-29T05:46:00;9.80;;;5.40;;
4424;SDS011;2225;53.568;13.266;2022-07-29T05:48:27;17.03;;;5.90;;
4424;SDS011;2225;53.568;13.266;2022-07-29T05:50:54;20.53;;;5.80;;
4424;SDS011;2225;53.568;13.266;2022-07-29T05:53:21;14.30;;;6.00;;
4424;SDS011;2225;53.568;13.266;2022-07-29T05:55:48;11.60;;;5.10;;
4424;SDS011;2225;53.568;13.266;2022-07-29T05:58:16;14.17;;;5.87;;
4424;SDS011;2225;53.568;13.266;2022-07-29T06:00:43;9.93;;;4.50;;
4424;SDS011;2225;53.568;13.266;2022-07-29T06:03:10;13.57;;;5.00;;
4424;SDS011;2225;53.568;13.266;2022-07-29T06:05:37;9.23;;;5.50;;
4424;SDS011;2225;53.568;13.266;2022-07-29T06:08:04;11.33;;;5.23;;
4424;SDS011;2225;53.568;13.266;2022-07-29T06:10:36;12.57;;;5.20;;
4424;SDS011;2225;53.568;13.266;2022-07-29T06:13:03;10.10;;;5.13;;
4424;SDS011;2225;53.568;13.266;2022-07-29T06:15:30;22.87;;;5.40;;
4424;SDS011;2225;53.568;13.266;2022-07-29T06:17:58;13.33;;;5.10;;
4424;SDS011;2225;53.568;13.266;2022-07-29T06:20:30;11.37;;;5.07;;
4424;SDS011;2225;53.568;13.266;2022-07-29T06:22:58;10.90;;;5.30;;
4424;SDS011;2225;53.568;13.266;2022-07-29T06:25:26;9.27;;;4.10;;
4424;SDS011;2225;53.568;13.266;2022-07-29T06:27:56;14.23;;;4.97;;
4424;SDS011;2225;53.568;13.266;2022-07-29T06:30:24;10.57;;;5.27;;
4424;SDS011;2225;53.568;13.266;2022-07-29T06:32:51;11.80;;;6.00;;
4424;SDS011;2225;53.568;13.266;2022-07-29T06:35:18;9.60;;;4.90;;
4424;SDS011;2225;53.568;13.266;2022-07-29T06:38:05;17.23;;;5.17;;
4424;SDS011;2225;53.568;13.266;2022-07-29T06:40:52;10.00;;;4.30;;
4424;SDS011;2225;53.568;13.266;2022-07-29T06:43:29;10.73;;;5.03;;
4424;SDS011;2225;53.568;13.266;2022-07-29T06:46:01;13.10;;;5.10;;
4424;SDS011;2225;53.568;13.266;2022-07-29T06:48:31;14.17;;;5.87;;
4424;SDS011;2225;53.568;13.266;2022-07-29T06:50:59;19.50;;;4.70;;
4424;SDS011;2225;53.568;13.266;2022-07-29T06:53:26;17.00;;;4.57;;
4424;SDS011;2225;53.568;13.266;2022-07-29T06:55:54;13.70;;;5.13;;
4424;SDS011;2225;53.568;13.266;2022-07-29T06:58:21;10.43;;;4.73;;
4424;SDS011;2225;53.568;13.266;2022-07-29T07:00:53;12.70;;;4.47;;
4424;SDS011;2225;53.568;13.266;2022-07-29T07:03:22;10.90;;;4.50;;
4424;SDS011;2225;53.568;13.266;2022-07-29T07:05:49;21.60;;;5.00;;
4424;SDS011;2225;53.568;13.266;2022-07-29T07:08:16;15.50;;;5.80;;
4424;SDS011;2225;53.568;13.266;2022-07-29T07:10:43;13.27;;;4.10;;
4424;SDS011;2225;53.568;13.266;2022-07-29T07:13:10;15.40;;;4.77;;
4424;SDS011;2225;53.568;13.266;2022-07-29T07:15:37;13.97;;;4.57;;
4424;SDS011;2225;53.568;13.266;2022-07-29T07:18:05;8.47;;;3.83;;
4424;SDS011;2225;53.568;13.266;2022-07-29T07:20:33;8.23;;;4.03;;
4424;SDS011;2225;53.568;13.266;2022-07-29T07:23:01;15.03;;;4.43;;
4424;SDS011;2225;53.568;13.266;2022-07-29T07:25:28;12.17;;;3.87;;
4424;SDS011;2225;53.568;13.266;2022-07-29T07:27:56;13.57;;;4.03;;
4424;SDS011;2225;53.568;13.266;2022-07-29T07:30:23;9.23;;;4.40;;
4424;SDS011;2225;53.568;13.266;2022-07-29T07:32:50;11.10;;;4.00;;
4424;SDS011;2225;53.568;13.266;2022-07-29T07:35:17;11.50;;;4.10;;
4424;SDS011;2225;53.568;13.266;2022-07-29T07:37:44;10.40;;;4.33;;
4424;SDS011;2225;53.568;13.266;2022-07-29T07:40:11;11.10;;;4.50;;
4424;SDS011;2225;53.568;13.266;2022-07-29T07:42:44;14.03;;;4.27;;
4424;SDS011;2225;53.568;13.266;2022-07-29T07:45:11;9.87;;;4.00;;
4424;SDS011;2225;53.568;13.266;2022-07-29T07:47:42;15.90;;;4.90;;
4424;SDS011;2225;53.568;13.266;2022-07-29T07:50:10;13.80;;;4.40;;
4424;SDS011;2225;53.568;13.266;2022-07-29T07:52:52;15.60;;;5.17;;
4424;SDS011;2225;53.568;13.266;2022-07-29T07:55:24;13.13;;;4.03;;
4424;SDS011;2225;53.568;13.266;2022-07-29T07:57:52;15.50;;;4.50;;
4424;SDS011;2225;53.568;13.266;2022-07-29T08:00:20;11.33;;;4.03;;
4424;SDS011;2225;53.568;13.266;2022-07-29T08:02:48;14.93;;;4.20;;
4424;SDS011;2225;53.568;13.266;2022-07-29T08:05:16;8.60;;;3.87;;
4424;SDS011;2225;53.568;13.266;2022-07-29T08:07:44;10.23;;;4.43;;
4424;SDS011;2225;53.568;13.266;2022-07-29T08:10:16;9.30;;;4.50;;
4424;SDS011;2225;53.568;13.266;2022-07-29T08:13:05;7.80;;;3.70;;
4424;SDS011;2225;53.568;13.266;2022-07-29T08:15:35;12.13;;;4.70;;
4424;SDS011;2225;53.568;13.266;2022-07-29T08:18:02;15.17;;;4.60;;
4424;SDS011;2225;53.568;13.266;2022-07-29T08:20:34;9.47;;;4.30;;
4424;SDS011;2225;53.568;13.266;2022-07-29T08:23:02;13.17;;;5.40;;
4424;SDS011;2225;53.568;13.266;2022-07-29T08:25:30;10.13;;;4.50;;
4424;SDS011;2225;53.568;13.266;2022-07-29T08:28:03;8.90;;;4.30;;
4424;SDS011;2225;53.568;13.266;2022-07-29T08:30:31;21.00;;;4.60;;
4424;SDS011;2225;53.568;13.266;2022-07-29T08:32:58;11.50;;;3.97;;
4424;SDS011;2225;53.568;13.266;2022-07-29T08:35:26;10.00;;;3.90;;
4424;SDS011;2225;53.568;13.266;2022-07-29T08:38:00;9.63;;;4.10;;
4424;SDS011;2225;53.568;13.266;2022-07-29T08:40:27;12.10;;;5.20;;
4424;SDS011;2225;53.568;13.266;2022-07-29T08:42:57;14.53;;;4.50;;
4424;SDS011;2225;53.568;13.266;2022-07-29T08:45:34;8.13;;;3.50;;
4424;SDS011;2225;53.568;13.266;2022-07-29T08:48:15;19.73;;;4.37;;
4424;SDS011;2225;53.568;13.266;2022-07-29T08:50:44;15.47;;;3.87;;
4424;SDS011;2225;53.568;13.266;2022-07-29T08:53:14;11.03;;;3.60;;
4424;SDS011;2225;53.568;13.266;2022-07-29T08:55:44;11.53;;;4.23;;
4424;SDS011;2225;53.568;13.266;2022-07-29T08:58:13;13.60;;;3.97;;
4424;SDS011;2225;53.568;13.266;2022-07-29T09:00:45;11.93;;;3.93;;
4424;SDS011;2225;53.568;13.266;2022-07-29T09:03:20;8.90;;;3.87;;
4424;SDS011;2225;53.568;13.266;2022-07-29T09:05:51;10.67;;;4.10;;
4424;SDS011;2225;53.568;13.266;2022-07-29T09:08:18;12.93;;;3.87;;
4424;SDS011;2225;53.568;13.266;2022-07-29T09:10:46;10.17;;;3.47;;
4424;SDS011;2225;53.568;13.266;2022-07-29T09:13:13;11.53;;;3.87;;
4424;SDS011;2225;53.568;13.266;2022-07-29T09:15:40;18.27;;;4.53;;
4424;SDS011;2225;53.568;13.266;2022-07-29T09:18:07;8.93;;;4.20;;
4424;SDS011;2225;53.568;13.266;2022-07-29T09:20:54;12.00;;;4.07;;
4424;SDS011;2225;53.568;13.266;2022-07-29T09:23:39;9.10;;;3.70;;
4424;SDS011;2225;53.568;13.266;2022-07-29T09:26:07;11.23;;;3.70;;
4424;SDS011;2225;53.568;13.266;2022-07-29T09:28:34;19.70;;;4.00;;
4424;SDS011;2225;53.568;13.266;2022-07-29T09:31:08;14.77;;;4.43;;
4424;SDS011;2225;53.568;13.266;2022-07-29T09:33:35;9.90;;;3.90;;
4424;SDS011;2225;53.568;13.266;2022-07-29T09:36:06;10.80;;;3.17;;
4424;SDS011;2225;53.568;13.266;2022-07-29T09:38:35;10.23;;;3.10;;
4424;SDS011;2225;53.568;13.266;2022-07-29T09:41:03;17.53;;;4.87;;
4424;SDS011;2225;53.568;13.266;2022-07-29T09:43:32;15.70;;;3.93;;
4424;SDS011;2225;53.568;13.266;2022-07-29T09:46:09;10.67;;;3.73;;
4424;SDS011;2225;53.568;13.266;2022-07-29T09:48:38;11.17;;;3.70;;
4424;SDS011;2225;53.568;13.266;2022-07-29T09:51:05;19.50;;;3.93;;
4424;SDS011;2225;53.568;13.266;2022-07-29T09:53:47;10.37;;;4.03;;
4424;SDS011;2225;53.568;13.266;2022-07-29T09:56:14;16.90;;;4.20;;
4424;SDS011;2225;53.568;13.266;2022-07-29T09:58:41;14.50;;;4.07;;
4424;SDS011;2225;53.568;13.266;2022-07-29T10:01:08;15.07;;;4.17;;
4424;SDS011;2225;53.568;13.266;2022-07-29T10:03:51;10.30;;;3.70;;
4424;SDS011;2225;53.568;13.266;2022-07-29T10:06:19;7.90;;;3.50;;
4424;SDS011;2225;53.568;13.266;2022-07-29T10:08:46;10.40;;;3.80;;
4424;SDS011;2225;53.568;13.266;2022-07-29T10:11:14;22.30;;;4.23;;
4424;SDS011;2225;53.568;13.266;2022-07-29T10:13:44;14.50;;;3.93;;
4424;SDS011;2225;53.568;13.266;2022-07-29T10:16:13;9.53;;;3.13;;
4424;SDS011;2225;53.568;13.266;2022-07-29T10:18:42;9.00;;;3.47;;
4424;SDS011;2225;53.568;13.266;2022-07-29T10:21:10;15.17;;;3.47;;
4424;SDS011;2225;53.568;13.266;2022-07-29T10:23:57;13.27;;;3.90;;
4424;SDS011;2225;53.568;13.266;2022-07-29T10:26:26;15.40;;;3.40;;
4424;SDS011;2225;53.568;13.266;2022-07-29T10:28:55;19.73;;;4.70;;
4424;SDS011;2225;53.568;13.266;2022-07-29T10:31:24;7.53;;;3.50;;
4424;SDS011;2225;53.568;13.266;2022-07-29T10:40:47;13.07;;;3.83;;
4424;SDS011;2225;53.568;13.266;2022-07-29T10:46:49;9.13;;;3.70;;
4424;SDS011;2225;53.568;13.266;2022-07-29T10:49:18;6.87;;;3.47;;
4424;SDS011;2225;53.568;13.266;2022-07-29T10:54:38;7.80;;;3.17;;
4424;SDS011;2225;53.568;13.266;2022-07-29T10:57:21;11.07;;;3.57;;
4424;SDS011;2225;53.568;13.266;2022-07-29T11:02:42;12.47;;;4.10;;
4424;SDS011;2225;53.568;13.266;2022-07-29T11:05:15;9.67;;;3.53;;
4424;SDS011;2225;53.568;13.266;2022-07-29T11:10:46;7.03;;;3.20;;
4424;SDS011;2225;53.568;13.266;2022-07-29T11:13:44;11.23;;;2.87;;
4424;SDS011;2225;53.568;13.266;2022-07-29T11:16:18;10.20;;;3.70;;
4424;SDS011;2225;53.568;13.266;2022-07-29T11:21:40;11.90;;;3.60;;
4424;SDS011;2225;53.568;13.266;2022-07-29T11:24:29;9.00;;;3.13;;
4424;SDS011;2225;53.568;13.266;2022-07-29T11:27:06;11.07;;;3.47;;
4424;SDS011;2225;53.568;13.266;2022-07-29T11:29:35;10.57;;;3.03;;
4424;SDS011;2225;53.568;13.266;2022-07-29T11:32:16;32.10;;;3.50;;
4424;SDS011;2225;53.568;13.266;2022-07-29T11:34:48;8.63;;;3.40;;
4424;SDS011;2225;53.568;13.266;2022-07-29T11:37:43;11.77;;;3.23;;
4424;SDS011;2225;53.568;13.266;2022-07-29T11:41:31;7.83;;;3.00;;
4424;SDS011;2225;53.568;13.266;2022-07-29T11:43:52;8.00;;;2.67;;
4424;SDS011;2225;53.568;13.266;2022-07-29T11:49:37;9.33;;;3.70;;
4424;SDS011;2225;53.568;13.266;2022-07-29T11:52:13;7.67;;;3.07;;
4424;SDS011;2225;53.568;13.266;2022-07-29T11:54:42;20.87;;;3.70;;
4424;SDS011;2225;53.568;13.266;2022-07-29T11:57:29;11.20;;;3.00;;
4424;SDS011;2225;53.568;13.266;2022-07-29T12:00:03;9.27;;;3.43;;
4424;SDS011;2225;53.568;13.266;2022-07-29T12:02:41;8.63;;;3.20;;
4424;SDS011;2225;53.568;13.266;2022-07-29T12:05:51;8.40;;;3.50;;
4424;SDS011;2225;53.568;13.266;2022-07-29T12:08:18;10.90;;;3.37;;
4424;SDS011;2225;53.568;13.266;2022-07-29T12:10:49;6.20;;;2.50;;
4424;SDS011;2225;53.568;13.266;2022-07-29T12:13:20;12.90;;;3.10;;
4424;SDS011;2225;53.568;13.266;2022-07-29T12:16:02;7.53;;;2.93;;
4424;SDS011;2225;53.568;13.266;2022-07-29T12:18:30;9.80;;;3.73;;
4424;SDS011;2225;53.568;13.266;2022-07-29T12:21:01;13.03;;;3.00;;
4424;SDS011;2225;53.568;13.266;2022-07-29T12:23:33;12.63;;;2.70;;
4424;SDS011;2225;53.568;13.266;2022-07-29T12:26:04;10.83;;;2.87;;
4424;SDS011;2225;53.568;13.266;2022-07-29T12:28:38;8.70;;;3.47;;
4424;SDS011;2225;53.568;13.266;2022-07-29T12:31:05;7.60;;;2.40;;
4424;SDS011;2225;53.568;13.266;2022-07-29T12:34:00;6.90;;;2.87;;
4424;SDS011;2225;53.568;13.266;2022-07-29T12:36:27;23.73;;;3.27;;
4424;SDS011;2225;53.568;13.266;2022-07-29T12:38:53;6.93;;;3.27;;
4424;SDS011;2225;53.568;13.266;2022-07-29T12:41:21;10.33;;;2.77;;
4424;SDS011;2225;53.568;13.266;2022-07-29T12:43:54;13.43;;;3.40;;
4424;SDS011;2225;53.568;13.266;2022-07-29T12:46:21;14.13;;;3.37;;
4424;SDS011;2225;53.568;13.266;2022-07-29T12:48:52;13.73;;;3.17;;
4424;SDS011;2225;53.568;13.266;2022-07-29T12:51:37;10.00;;;2.90;;
4424;SDS011;2225;53.568;13.266;2022-07-29T12:54:12;7.97;;;2.77;;
4424;SDS011;2225;53.568;13.266;2022-07-29T12:56:42;9.87;;;3.77;;
4424;SDS011;2225;53.568;13.266;2022-07-29T12:59:18;9.60;;;3.10;;
4424;SDS011;2225;53.568;13.266;2022-07-29T13:01:47;8.23;;;2.60;;
4424;SDS011;2225;53.568;13.266;2022-07-29T13:04:23;6.90;;;2.73;;
4424;SDS011;2225;53.568;13.266;2022-07-29T13:06:59;7.50;;;3.30;;
4424;SDS011;2225;53.568;13.266;2022-07-29T13:09:42;8.90;;;3.17;;
4424;SDS011;2225;53.568;13.266;2022-07-29T13:12:14;8.33;;;3.70;;
4424;SDS011;2225;53.568;13.266;2022-07-29T13:14:42;7.63;;;3.17;;
4424;SDS011;2225;53.568;13.266;2022-07-29T13:17:20;8.70;;;3.20;;
4424;SDS011;2225;53.568;13.266;2022-07-29T13:22:18;10.30;;;2.60;;
4424;SDS011;2225;53.568;13.266;2022-07-29T13:24:57;10.60;;;3.33;;
4424;SDS011;2225;53.568;13.266;2022-07-29T13:27:28;8.70;;;3.30;;
4424;SDS011;2225;53.568;13.266;2022-07-29T13:29:58;6.33;;;2.80;;
4424;SDS011;2225;53.568;13.266;2022-07-29T13:32:28;6.70;;;2.40;;
4424;SDS011;2225;53.568;13.266;2022-07-29T13:34:57;4.63;;;2.33;;
4424;SDS011;2225;53.568;13.266;2022-07-29T13:37:30;7.60;;;3.13;;
4424;SDS011;2225;53.568;13.266;2022-07-29T13:40:01;7.10;;;2.70;;
4424;SDS011;2225;53.568;13.266;2022-07-29T13:42:29;7.43;;;3.03;;
4424;SDS011;2225;53.568;13.266;2022-07-29T13:44:58;16.40;;;3.23;;
4424;SDS011;2225;53.568;13.266;2022-07-29T13:47:25;12.80;;;3.23;;
4424;SDS011;2225;53.568;13.266;2022-07-29T13:49:59;5.83;;;2.27;;
4424;SDS011;2225;53.568;13.266;2022-07-29T13:52:27;6.40;;;2.30;;
4424;SDS011;2225;53.568;13.266;2022-07-29T13:54:54;9.47;;;2.60;;
4424;SDS011;2225;53.568;13.266;2022-07-29T13:57:21;6.17;;;2.13;;
4424;SDS011;2225;53.568;13.266;2022-07-29T13:59:48;5.33;;;2.47;;
4424;SDS011;2225;53.568;13.266;2022-07-29T14:02:19;10.00;;;2.30;;
4424;SDS011;2225;53.568;13.266;2022-07-29T14:04:51;15.73;;;2.43;;
4424;SDS011;2225;53.568;13.266;2022-07-29T14:07:19;6.43;;;2.10;;
4424;SDS011;2225;53.568;13.266;2022-07-29T14:09:47;6.67;;;2.17;;
4424;SDS011;2225;53.568;13.266;2022-07-29T14:12:14;10.83;;;2.70;;
4424;SDS011;2225;53.568;13.266;2022-07-29T14:14:41;15.60;;;2.63;;
4424;SDS011;2225;53.568;13.266;2022-07-29T14:17:08;5.67;;;2.23;;
4424;SDS011;2225;53.568;13.266;2022-07-29T14:19:35;6.17;;;2.30;;
4424;SDS011;2225;53.568;13.266;2022-07-29T14:22:04;16.50;;;2.27;;
4424;SDS011;2225;53.568;13.266;2022-07-29T14:24:34;6.00;;;2.17;;
4424;SDS011;2225;53.568;13.266;2022-07-29T14:27:02;6.27;;;2.40;;
4424;SDS011;2225;53.568;13.266;2022-07-29T14:29:30;4.00;;;1.57;;
4424;SDS011;2225;53.568;13.266;2022-07-29T14:32:07;5.40;;;2.13;;
4424;SDS011;2225;53.568;13.266;2022-07-29T14:34:36;6.73;;;2.13;;
4424;SDS011;2225;53.568;13.266;2022-07-29T14:37:04;8.23;;;2.30;;
4424;SDS011;2225;53.568;13.266;2022-07-29T14:39:32;24.13;;;2.00;;
4424;SDS011;2225;53.568;13.266;2022-07-29T14:42:08;7.27;;;2.70;;
4424;SDS011;2225;53.568;13.266;2022-07-29T14:44:38;7.03;;;2.70;;
4424;SDS011;2225;53.568;13.266;2022-07-29T14:47:06;6.30;;;2.37;;
4424;SDS011;2225;53.568;13.266;2022-07-29T14:49:34;28.70;;;2.60;;
4424;SDS011;2225;53.568;13.266;2022-07-29T14:52:01;13.03;;;2.00;;
4424;SDS011;2225;53.568;13.266;2022-07-29T14:54:29;7.63;;;2.93;;
4424;SDS011;2225;53.568;13.266;2022-07-29T14:56:56;17.63;;;2.70;;
4424;SDS011;2225;53.568;13.266;2022-07-29T14:59:24;5.33;;;2.40;;
4424;SDS011;2225;53.568;13.266;2022-07-29T15:01:52;5.77;;;2.50;;
4424;SDS011;2225;53.568;13.266;2022-07-29T15:04:19;9.43;;;2.20;;
4424;SDS011;2225;53.568;13.266;2022-07-29T15:06:46;8.43;;;2.60;;
4424;SDS011;2225;53.568;13.266;2022-07-29T15:09:13;14.37;;;2.40;;
4424;SDS011;2225;53.568;13.266;2022-07-29T15:11:40;5.10;;;2.30;;
4424;SDS011;2225;53.568;13.266;2022-07-29T15:14:07;8.20;;;2.20;;
4424;SDS011;2225;53.568;13.266;2022-07-29T15:16:37;12.40;;;2.40;;
4424;SDS011;2225;53.568;13.266;2022-07-29T15:19:13;7.40;;;1.97;;
4424;SDS011;2225;53.568;13.266;2022-07-29T15:21:40;16.47;;;2.80;;
4424;SDS011;2225;53.568;13.266;2022-07-29T15:24:14;6.70;;;2.30;;
4424;SDS011;2225;53.568;13.266;2022-07-29T15:26:44;13.70;;;2.10;;
4424;SDS011;2225;53.568;13.266;2022-07-29T15:29:12;13.20;;;2.63;;
4424;SDS011;2225;53.568;13.266;2022-07-29T15:31:40;7.43;;;2.17;;
4424;SDS011;2225;53.568;13.266;2022-07-29T15:34:07;5.20;;;2.00;;
4424;SDS011;2225;53.568;13.266;2022-07-29T15:36:34;7.87;;;2.50;;
4424;SDS011;2225;53.568;13.266;2022-07-29T15:39:19;6.00;;;2.40;;
4424;SDS011;2225;53.568;13.266;2022-07-29T15:41:48;5.37;;;2.13;;
4424;SDS011;2225;53.568;13.266;2022-07-29T15:44:16;4.10;;;1.97;;
4424;SDS011;2225;53.568;13.266;2022-07-29T15:46:43;11.27;;;2.50;;
4424;SDS011;2225;53.568;13.266;2022-07-29T15:49:29;14.77;;;2.70;;
4424;SDS011;2225;53.568;13.266;2022-07-29T15:52:14;8.77;;;2.10;;
4424;SDS011;2225;53.568;13.266;2022-07-29T15:54:49;10.70;;;2.47;;